sensor_id;sensor_type;location;lat;lon;timestamp;temperature;humidity
6841;DHT22;3458;53.678;14.080;2024-01-06T00:00:20;0.40;99.90
6841;DHT22;3458;53.678;14.080;2024-01-06T00:02:48;0.40;99.90
6841;DHT22;3458;53.678;14.080;2024-01-06T00:05:14;0.50;99.90
6841;DHT22;3458;53.678;14.080;2024-01-06T00:07:40;0.50;99.90
6841;DHT22;3458;53.678;14.080;2024-01-06T00:10:06;0.50;99.90
6841;DHT22;3458;53.678;14.080;2024-01-06T00:12:32;0.50;99.90
6841;DHT22;3458;53.678;14.080;2024-01-06T00:14:57;0.40;99.90
6841;DHT22;3458;53.678;14.080;2024-01-06T00:17:23;0.40;99.90
6841;DHT22;3458;53.678;14.080;2024-01-06T00:19:48;0.40;99.90
6841;DHT22;3458;53.678;14.080;2024-01-06T00:22:17;0.40;99.90
6841;DHT22;3458;53.678;14.080;2024-01-06T00:24:43;0.40;99.90
6841;DHT22;3458;53.678;14.080;2024-01-06T00:27:08;0.40;99.90
6841;DHT22;3458;53.678;14.080;2024-01-06T00:29:34;0.50;99.90
6841;DHT22;3458;53.678;14.080;2024-01-06T00:31:59;0.50;99.90
6841;DHT22;3458;53.678;14.080;2024-01-06T00:34:25;0.40;99.90
6841;DHT22;3458;53.678;14.080;2024-01-06T00:36:50;0.40;99.90
6841;DHT22;3458;53.678;14.080;2024-01-06T00:39:16;0.50;99.90
6841;DHT22;3458;53.678;14.080;2024-01-06T00:41:41;0.50;99.90
6841;DHT22;3458;53.678;14.080;2024-01-06T00:44:07;0.50;99.90
6841;DHT22;3458;53.678;14.080;2024-01-06T00:46:32;0.40;99.90
6841;DHT22;3458;53.678;14.080;2024-01-06T00:48:58;0.40;99.90
6841;DHT22;3458;53.678;14.080;2024-01-06T00:51:23;0.30;99.90
6841;DHT22;3458;53.678;14.080;2024-01-06T00:53:49;0.20;99.90
6841;DHT22;3458;53.678;14.080;2024-01-06T00:56:14;0.30;99.90
6841;DHT22;3458;53.678;14.080;2024-01-06T00:58:40;0.30;99.90
6841;DHT22;3458;53.678;14.080;2024-01-06T01:01:05;0.20;99.90
6841;DHT22;3458;53.678;14.080;2024-01-06T01:03:30;0.30;99.90
6841;DHT22;3458;53.678;14.080;2024-01-06T01:05:56;0.30;99.90
6841;DHT22;3458;53.678;14.080;2024-01-06T01:08:22;0.20;99.90
6841;DHT22;3458;53.678;14.080;2024-01-06T01:10:47;0.20;99.90
6841;DHT22;3458;53.678;14.080;2024-01-06T01:13:13;0.30;99.90
6841;DHT22;3458;53.678;14.080;2024-01-06T01:15:38;0.30;99.90
6841;DHT22;3458;53.678;14.080;2024-01-06T01:18:04;0.30;99.90
6841;DHT22;3458;53.678;14.080;2024-01-06T01:20:29;0.30;99.90
6841;DHT22;3458;53.678;14.080;2024-01-06T01:22:55;0.20;99.90
6841;DHT22;3458;53.678;14.080;2024-01-06T01:25:20;0.30;99.90
6841;DHT22;3458;53.678;14.080;2024-01-06T01:27:46;0.30;99.90
6841;DHT22;3458;53.678;14.080;2024-01-06T01:30:11;0.30;99.90
6841;DHT22;3458;53.678;14.080;2024-01-06T01:32:37;0.30;99.90
6841;DHT22;3458;53.678;14.080;2024-01-06T01:35:03;0.30;99.90
6841;DHT22;3458;53.678;14.080;2024-01-06T01:37:28;0.30;99.90
6841;DHT22;3458;53.678;14.080;2024-01-06T01:39:54;0.40;99.90
6841;DHT22;3458;53.678;14.080;2024-01-06T01:42:19;0.40;99.90
6841;DHT22;3458;53.678;14.080;2024-01-06T01:44:45;0.40;99.90
6841;DHT22;3458;53.678;14.080;2024-01-06T01:47:11;0.40;99.90
6841;DHT22;3458;53.678;14.080;2024-01-06T01:49:37;0.30;99.90
6841;DHT22;3458;53.678;14.080;2024-01-06T01:52:03;0.30;99.90
6841;DHT22;3458;53.678;14.080;2024-01-06T01:54:29;0.40;99.90
6841;DHT22;3458;53.678;14.080;2024-01-06T01:56:55;0.40;99.90
6841;DHT22;3458;53.678;14.080;2024-01-06T01:59:20;0.40;99.90
6841;DHT22;3458;53.678;14.080;2024-01-06T02:01:47;0.40;99.90
6841;DHT22;3458;53.678;14.080;2024-01-06T02:04:13;0.40;99.90
6841;DHT22;3458;53.678;14.080;2024-01-06T02:06:38;0.40;99.90
6841;DHT22;3458;53.678;14.080;2024-01-06T02:09:04;0.40;99.90
6841;DHT22;3458;53.678;14.080;2024-01-06T02:11:30;0.40;99.90
6841;DHT22;3458;53.678;14.080;2024-01-06T02:13:56;0.40;99.90
6841;DHT22;3458;53.678;14.080;2024-01-06T02:16:21;0.30;99.90
6841;DHT22;3458;53.678;14.080;2024-01-06T02:18:47;0.30;99.90
6841;DHT22;3458;53.678;14.080;2024-01-06T02:21:13;0.40;99.90
6841;DHT22;3458;53.678;14.080;2024-01-06T02:23:39;0.40;99.90
6841;DHT22;3458;53.678;14.080;2024-01-06T02:26:05;0.30;99.90
6841;DHT22;3458;53.678;14.080;2024-01-06T02:28:30;0.20;99.90
6841;DHT22;3458;53.678;14.080;2024-01-06T02:30:56;0.20;99.90
6841;DHT22;3458;53.678;14.080;2024-01-06T02:33:21;0.20;99.90
6841;DHT22;3458;53.678;14.080;2024-01-06T02:35:49;0.20;99.90
6841;DHT22;3458;53.678;14.080;2024-01-06T02:38:15;0.20;99.90
6841;DHT22;3458;53.678;14.080;2024-01-06T02:40:40;0.30;99.90
6841;DHT22;3458;53.678;14.080;2024-01-06T02:43:06;0.20;99.90
6841;DHT22;3458;53.678;14.080;2024-01-06T02:45:31;0.20;99.90
6841;DHT22;3458;53.678;14.080;2024-01-06T02:47:57;0.10;99.90
6841;DHT22;3458;53.678;14.080;2024-01-06T02:50:22;0.10;99.90
6841;DHT22;3458;53.678;14.080;2024-01-06T02:52:48;0.10;99.90
6841;DHT22;3458;53.678;14.080;2024-01-06T02:55:14;0.20;99.90
6841;DHT22;3458;53.678;14.080;2024-01-06T02:57:39;0.10;99.90
6841;DHT22;3458;53.678;14.080;2024-01-06T03:00:07;0.20;99.90
6841;DHT22;3458;53.678;14.080;2024-01-06T03:02:32;0.20;99.90
6841;DHT22;3458;53.678;14.080;2024-01-06T03:04:58;0.20;99.90
6841;DHT22;3458;53.678;14.080;2024-01-06T03:07:24;0.20;99.90
6841;DHT22;3458;53.678;14.080;2024-01-06T03:09:49;0.10;99.90
6841;DHT22;3458;53.678;14.080;2024-01-06T03:12:15;0.10;99.90
6841;DHT22;3458;53.678;14.080;2024-01-06T03:14:40;0.20;99.90
6841;DHT22;3458;53.678;14.080;2024-01-06T03:17:06;0.10;99.90
6841;DHT22;3458;53.678;14.080;2024-01-06T03:19:31;0.00;99.90
6841;DHT22;3458;53.678;14.080;2024-01-06T03:21:57;-0.10;99.90
6841;DHT22;3458;53.678;14.080;2024-01-06T03:24:24;-0.20;99.90
6841;DHT22;3458;53.678;14.080;2024-01-06T03:26:50;-0.10;99.90
6841;DHT22;3458;53.678;14.080;2024-01-06T03:29:15;0.00;99.90
6841;DHT22;3458;53.678;14.080;2024-01-06T03:31:44;0.00;99.90
6841;DHT22;3458;53.678;14.080;2024-01-06T03:34:10;0.10;99.90
6841;DHT22;3458;53.678;14.080;2024-01-06T03:36:37;0.10;99.90
6841;DHT22;3458;53.678;14.080;2024-01-06T03:39:02;0.00;99.90
6841;DHT22;3458;53.678;14.080;2024-01-06T03:41:28;0.10;99.90
6841;DHT22;3458;53.678;14.080;2024-01-06T03:43:54;0.00;99.90
6841;DHT22;3458;53.678;14.080;2024-01-06T03:46:19;0.10;99.90
6841;DHT22;3458;53.678;14.080;2024-01-06T03:48:45;0.10;99.90
6841;DHT22;3458;53.678;14.080;2024-01-06T03:51:12;0.10;99.90
6841;DHT22;3458;53.678;14.080;2024-01-06T03:53:38;0.10;99.90
6841;DHT22;3458;53.678;14.080;2024-01-06T03:56:04;0.10;99.90
6841;DHT22;3458;53.678;14.080;2024-01-06T03:58:29;0.00;99.90
6841;DHT22;3458;53.678;14.080;2024-01-06T04:00:55;-0.10;99.90
6841;DHT22;3458;53.678;14.080;2024-01-06T04:03:20;0.00;99.90
6841;DHT22;3458;53.678;14.080;2024-01-06T04:05:46;0.10;99.90
6841;DHT22;3458;53.678;14.080;2024-01-06T04:08:11;0.10;99.90
6841;DHT22;3458;53.678;14.080;2024-01-06T04:10:37;0.00;99.90
6841;DHT22;3458;53.678;14.080;2024-01-06T04:13:03;0.00;99.90
6841;DHT22;3458;53.678;14.080;2024-01-06T04:15:28;0.00;99.90
6841;DHT22;3458;53.678;14.080;2024-01-06T04:17:54;0.00;99.90
6841;DHT22;3458;53.678;14.080;2024-01-06T04:20:20;0.00;99.90
6841;DHT22;3458;53.678;14.080;2024-01-06T04:22:45;0.00;99.90
6841;DHT22;3458;53.678;14.080;2024-01-06T04:25:11;-0.10;99.90
6841;DHT22;3458;53.678;14.080;2024-01-06T04:27:36;-0.10;99.90
6841;DHT22;3458;53.678;14.080;2024-01-06T04:30:02;-0.20;99.90
6841;DHT22;3458;53.678;14.080;2024-01-06T04:32:27;-0.20;99.90
6841;DHT22;3458;53.678;14.080;2024-01-06T04:34:53;-0.20;99.90
6841;DHT22;3458;53.678;14.080;2024-01-06T04:37:18;-0.10;99.90
6841;DHT22;3458;53.678;14.080;2024-01-06T04:39:44;-0.20;99.90
6841;DHT22;3458;53.678;14.080;2024-01-06T04:42:09;-0.10;99.90
6841;DHT22;3458;53.678;14.080;2024-01-06T04:44:35;-0.20;99.90
6841;DHT22;3458;53.678;14.080;2024-01-06T04:47:00;-0.10;99.90
6841;DHT22;3458;53.678;14.080;2024-01-06T04:49:26;-0.20;99.90
6841;DHT22;3458;53.678;14.080;2024-01-06T04:51:51;-0.20;99.90
6841;DHT22;3458;53.678;14.080;2024-01-06T04:54:17;-0.20;99.90
6841;DHT22;3458;53.678;14.080;2024-01-06T04:56:42;-0.20;99.90
6841;DHT22;3458;53.678;14.080;2024-01-06T04:59:08;-0.20;99.90
6841;DHT22;3458;53.678;14.080;2024-01-06T05:01:33;-0.20;99.90
6841;DHT22;3458;53.678;14.080;2024-01-06T05:03:59;-0.20;99.90
6841;DHT22;3458;53.678;14.080;2024-01-06T05:06:24;-0.20;99.90
6841;DHT22;3458;53.678;14.080;2024-01-06T05:08:50;-0.10;99.90
6841;DHT22;3458;53.678;14.080;2024-01-06T05:11:15;-0.20;99.90
6841;DHT22;3458;53.678;14.080;2024-01-06T05:13:41;-0.20;99.90
6841;DHT22;3458;53.678;14.080;2024-01-06T05:16:07;-0.30;99.90
6841;DHT22;3458;53.678;14.080;2024-01-06T05:18:33;-0.30;99.90
6841;DHT22;3458;53.678;14.080;2024-01-06T05:20:58;-0.20;99.90
6841;DHT22;3458;53.678;14.080;2024-01-06T05:23:24;-0.30;99.90
6841;DHT22;3458;53.678;14.080;2024-01-06T05:25:49;-0.30;99.90
6841;DHT22;3458;53.678;14.080;2024-01-06T05:28:15;-0.30;99.90
6841;DHT22;3458;53.678;14.080;2024-01-06T05:30:40;-0.30;99.90
6841;DHT22;3458;53.678;14.080;2024-01-06T05:33:09;-0.30;99.90
6841;DHT22;3458;53.678;14.080;2024-01-06T05:35:35;-0.40;99.90
6841;DHT22;3458;53.678;14.080;2024-01-06T05:38:00;-0.40;99.90
6841;DHT22;3458;53.678;14.080;2024-01-06T05:40:26;-0.40;99.90
6841;DHT22;3458;53.678;14.080;2024-01-06T05:42:52;-0.40;99.90
6841;DHT22;3458;53.678;14.080;2024-01-06T05:45:21;-0.30;99.90
6841;DHT22;3458;53.678;14.080;2024-01-06T05:47:46;-0.30;99.90
6841;DHT22;3458;53.678;14.080;2024-01-06T05:50:15;-0.30;99.90
6841;DHT22;3458;53.678;14.080;2024-01-06T05:52:40;-0.30;99.90
6841;DHT22;3458;53.678;14.080;2024-01-06T05:55:06;-0.30;99.90
6841;DHT22;3458;53.678;14.080;2024-01-06T05:57:32;-0.30;99.90
6841;DHT22;3458;53.678;14.080;2024-01-06T05:59:58;-0.30;99.90
6841;DHT22;3458;53.678;14.080;2024-01-06T06:02:24;-0.30;99.90
6841;DHT22;3458;53.678;14.080;2024-01-06T06:04:50;-0.40;99.90
6841;DHT22;3458;53.678;14.080;2024-01-06T06:07:15;-0.30;99.90
6841;DHT22;3458;53.678;14.080;2024-01-06T06:09:40;-0.30;99.90
6841;DHT22;3458;53.678;14.080;2024-01-06T06:12:06;-0.30;99.90
6841;DHT22;3458;53.678;14.080;2024-01-06T06:14:32;-0.40;99.90
6841;DHT22;3458;53.678;14.080;2024-01-06T06:16:57;-0.30;99.90
6841;DHT22;3458;53.678;14.080;2024-01-06T06:19:23;-0.30;99.90
6841;DHT22;3458;53.678;14.080;2024-01-06T06:21:48;-0.30;99.90
6841;DHT22;3458;53.678;14.080;2024-01-06T06:24:14;-0.30;99.90
6841;DHT22;3458;53.678;14.080;2024-01-06T06:26:39;-0.30;99.90
6841;DHT22;3458;53.678;14.080;2024-01-06T06:29:05;-0.20;99.90
6841;DHT22;3458;53.678;14.080;2024-01-06T06:31:30;-0.20;99.90
6841;DHT22;3458;53.678;14.080;2024-01-06T06:33:55;-0.10;99.90
6841;DHT22;3458;53.678;14.080;2024-01-06T06:36:21;-0.20;99.90
6841;DHT22;3458;53.678;14.080;2024-01-06T06:38:46;-0.30;99.90
6841;DHT22;3458;53.678;14.080;2024-01-06T06:41:12;-0.40;99.90
6841;DHT22;3458;53.678;14.080;2024-01-06T06:43:37;-0.40;99.90
6841;DHT22;3458;53.678;14.080;2024-01-06T06:46:03;-0.50;99.90
6841;DHT22;3458;53.678;14.080;2024-01-06T06:48:28;-0.40;99.90
6841;DHT22;3458;53.678;14.080;2024-01-06T06:50:54;-0.40;99.90
6841;DHT22;3458;53.678;14.080;2024-01-06T06:53:20;-0.40;99.90
6841;DHT22;3458;53.678;14.080;2024-01-06T06:55:45;-0.30;99.90
6841;DHT22;3458;53.678;14.080;2024-01-06T06:58:11;-0.30;99.90
6841;DHT22;3458;53.678;14.080;2024-01-06T07:00:37;-0.20;99.90
6841;DHT22;3458;53.678;14.080;2024-01-06T07:03:03;-0.30;99.90
6841;DHT22;3458;53.678;14.080;2024-01-06T07:05:29;-0.30;99.90
6841;DHT22;3458;53.678;14.080;2024-01-06T07:07:54;-0.20;99.90
6841;DHT22;3458;53.678;14.080;2024-01-06T07:10:20;-0.20;99.90
6841;DHT22;3458;53.678;14.080;2024-01-06T07:12:45;-0.10;99.90
6841;DHT22;3458;53.678;14.080;2024-01-06T07:15:11;-0.20;99.90
6841;DHT22;3458;53.678;14.080;2024-01-06T07:17:37;-0.20;99.90
6841;DHT22;3458;53.678;14.080;2024-01-06T07:20:07;-0.20;99.90
6841;DHT22;3458;53.678;14.080;2024-01-06T07:22:33;-0.20;99.90
6841;DHT22;3458;53.678;14.080;2024-01-06T07:25:02;-0.30;99.90
6841;DHT22;3458;53.678;14.080;2024-01-06T07:27:27;-0.20;99.90
6841;DHT22;3458;53.678;14.080;2024-01-06T07:29:53;-0.20;99.90
6841;DHT22;3458;53.678;14.080;2024-01-06T07:32:21;-0.30;99.90
6841;DHT22;3458;53.678;14.080;2024-01-06T07:34:46;-0.30;99.90
6841;DHT22;3458;53.678;14.080;2024-01-06T07:37:12;-0.30;99.90
6841;DHT22;3458;53.678;14.080;2024-01-06T07:39:37;-0.30;99.90
6841;DHT22;3458;53.678;14.080;2024-01-06T07:42:03;-0.20;99.90
6841;DHT22;3458;53.678;14.080;2024-01-06T07:44:29;-0.30;99.90
6841;DHT22;3458;53.678;14.080;2024-01-06T07:46:54;-0.40;99.90
6841;DHT22;3458;53.678;14.080;2024-01-06T07:49:20;-0.50;99.90
6841;DHT22;3458;53.678;14.080;2024-01-06T07:51:46;-0.50;99.90
6841;DHT22;3458;53.678;14.080;2024-01-06T07:54:11;-0.40;99.90
6841;DHT22;3458;53.678;14.080;2024-01-06T07:56:37;-0.40;99.90
6841;DHT22;3458;53.678;14.080;2024-01-06T07:59:03;-0.40;99.90
6841;DHT22;3458;53.678;14.080;2024-01-06T08:01:29;-0.40;99.90
6841;DHT22;3458;53.678;14.080;2024-01-06T08:03:55;-0.40;99.90
6841;DHT22;3458;53.678;14.080;2024-01-06T08:06:20;-0.30;99.90
6841;DHT22;3458;53.678;14.080;2024-01-06T08:08:46;-0.20;99.90
6841;DHT22;3458;53.678;14.080;2024-01-06T08:11:12;-0.10;99.90
6841;DHT22;3458;53.678;14.080;2024-01-06T08:13:37;-0.10;99.90
6841;DHT22;3458;53.678;14.080;2024-01-06T08:16:04;-0.10;99.90
6841;DHT22;3458;53.678;14.080;2024-01-06T08:18:30;-0.10;99.90
6841;DHT22;3458;53.678;14.080;2024-01-06T08:20:59;0.00;99.90
6841;DHT22;3458;53.678;14.080;2024-01-06T08:23:25;0.00;99.90
6841;DHT22;3458;53.678;14.080;2024-01-06T08:25:51;0.00;99.90
6841;DHT22;3458;53.678;14.080;2024-01-06T08:28:16;0.10;99.90
6841;DHT22;3458;53.678;14.080;2024-01-06T08:30:44;0.10;99.90
6841;DHT22;3458;53.678;14.080;2024-01-06T08:33:10;0.10;99.90
6841;DHT22;3458;53.678;14.080;2024-01-06T08:35:35;-0.10;99.90
6841;DHT22;3458;53.678;14.080;2024-01-06T08:38:06;-0.10;99.90
6841;DHT22;3458;53.678;14.080;2024-01-06T08:40:31;-0.10;99.90
6841;DHT22;3458;53.678;14.080;2024-01-06T08:42:57;-0.10;99.90
6841;DHT22;3458;53.678;14.080;2024-01-06T08:45:22;0.00;99.90
6841;DHT22;3458;53.678;14.080;2024-01-06T08:47:48;-0.10;99.90
6841;DHT22;3458;53.678;14.080;2024-01-06T08:50:13;0.00;99.90
6841;DHT22;3458;53.678;14.080;2024-01-06T08:52:39;0.00;99.90
6841;DHT22;3458;53.678;14.080;2024-01-06T08:55:05;0.00;99.90
6841;DHT22;3458;53.678;14.080;2024-01-06T08:57:30;0.10;99.90
6841;DHT22;3458;53.678;14.080;2024-01-06T08:59:56;0.10;99.90
6841;DHT22;3458;53.678;14.080;2024-01-06T09:02:21;0.10;99.90
6841;DHT22;3458;53.678;14.080;2024-01-06T09:04:47;0.20;99.90
6841;DHT22;3458;53.678;14.080;2024-01-06T09:07:12;0.20;99.90
6841;DHT22;3458;53.678;14.080;2024-01-06T09:09:38;0.20;99.90
6841;DHT22;3458;53.678;14.080;2024-01-06T09:12:03;0.10;99.90
6841;DHT22;3458;53.678;14.080;2024-01-06T09:14:29;0.00;99.90
6841;DHT22;3458;53.678;14.080;2024-01-06T09:16:55;-0.10;99.90
6841;DHT22;3458;53.678;14.080;2024-01-06T09:19:21;0.00;99.90
6841;DHT22;3458;53.678;14.080;2024-01-06T09:21:47;0.10;99.90
6841;DHT22;3458;53.678;14.080;2024-01-06T09:24:12;0.10;99.90
6841;DHT22;3458;53.678;14.080;2024-01-06T09:26:38;0.20;99.90
6841;DHT22;3458;53.678;14.080;2024-01-06T09:29:04;0.20;99.90
6841;DHT22;3458;53.678;14.080;2024-01-06T09:31:31;0.10;99.90
6841;DHT22;3458;53.678;14.080;2024-01-06T09:34:00;0.20;99.90
6841;DHT22;3458;53.678;14.080;2024-01-06T09:36:27;0.20;99.90
6841;DHT22;3458;53.678;14.080;2024-01-06T09:38:52;0.10;99.90
6841;DHT22;3458;53.678;14.080;2024-01-06T09:41:18;0.20;99.90
6841;DHT22;3458;53.678;14.080;2024-01-06T09:43:43;0.20;99.90
6841;DHT22;3458;53.678;14.080;2024-01-06T09:46:21;0.20;99.90
6841;DHT22;3458;53.678;14.080;2024-01-06T09:48:50;0.10;99.90
6841;DHT22;3458;53.678;14.080;2024-01-06T09:51:19;0.00;99.90
6841;DHT22;3458;53.678;14.080;2024-01-06T09:54:08;0.00;99.90
6841;DHT22;3458;53.678;14.080;2024-01-06T09:56:34;0.10;99.90
6841;DHT22;3458;53.678;14.080;2024-01-06T09:59:00;0.10;99.90
6841;DHT22;3458;53.678;14.080;2024-01-06T10:01:26;0.10;99.90
6841;DHT22;3458;53.678;14.080;2024-01-06T10:03:51;0.20;99.90
6841;DHT22;3458;53.678;14.080;2024-01-06T10:06:17;0.20;99.90
6841;DHT22;3458;53.678;14.080;2024-01-06T10:08:47;0.30;99.90
6841;DHT22;3458;53.678;14.080;2024-01-06T10:11:13;0.40;99.90
6841;DHT22;3458;53.678;14.080;2024-01-06T10:13:38;0.40;99.90
6841;DHT22;3458;53.678;14.080;2024-01-06T10:16:05;0.50;99.90
6841;DHT22;3458;53.678;14.080;2024-01-06T10:18:31;0.50;99.90
6841;DHT22;3458;53.678;14.080;2024-01-06T10:20:57;0.50;99.90
6841;DHT22;3458;53.678;14.080;2024-01-06T10:23:23;0.60;99.90
6841;DHT22;3458;53.678;14.080;2024-01-06T10:25:54;0.60;99.90
6841;DHT22;3458;53.678;14.080;2024-01-06T10:28:23;0.50;99.90
6841;DHT22;3458;53.678;14.080;2024-01-06T10:30:52;0.50;99.90
6841;DHT22;3458;53.678;14.080;2024-01-06T10:33:22;0.40;99.90
6841;DHT22;3458;53.678;14.080;2024-01-06T10:35:49;0.50;99.90
6841;DHT22;3458;53.678;14.080;2024-01-06T10:38:15;0.50;99.90
6841;DHT22;3458;53.678;14.080;2024-01-06T10:40:59;0.60;99.90
6841;DHT22;3458;53.678;14.080;2024-01-06T10:43:27;0.70;99.90
6841;DHT22;3458;53.678;14.080;2024-01-06T10:45:55;0.70;99.90
6841;DHT22;3458;53.678;14.080;2024-01-06T10:48:24;0.60;99.90
6841;DHT22;3458;53.678;14.080;2024-01-06T10:50:50;0.50;99.90
6841;DHT22;3458;53.678;14.080;2024-01-06T10:53:17;0.60;99.90
6841;DHT22;3458;53.678;14.080;2024-01-06T10:55:44;0.60;99.90
6841;DHT22;3458;53.678;14.080;2024-01-06T10:58:11;0.50;99.90
6841;DHT22;3458;53.678;14.080;2024-01-06T11:00:37;0.50;99.90
6841;DHT22;3458;53.678;14.080;2024-01-06T11:03:04;0.50;99.90
6841;DHT22;3458;53.678;14.080;2024-01-06T11:05:30;0.50;99.90
6841;DHT22;3458;53.678;14.080;2024-01-06T11:07:57;0.60;99.90
6841;DHT22;3458;53.678;14.080;2024-01-06T11:10:27;0.70;99.90
6841;DHT22;3458;53.678;14.080;2024-01-06T11:13:09;0.70;99.90
6841;DHT22;3458;53.678;14.080;2024-01-06T11:15:48;0.70;99.90
6841;DHT22;3458;53.678;14.080;2024-01-06T11:18:36;0.70;99.90
6841;DHT22;3458;53.678;14.080;2024-01-06T11:23:44;0.80;99.90
6841;DHT22;3458;53.678;14.080;2024-01-06T11:26:10;0.70;99.90
6841;DHT22;3458;53.678;14.080;2024-01-06T11:28:46;0.60;99.90
6841;DHT22;3458;53.678;14.080;2024-01-06T11:31:12;0.60;99.90
6841;DHT22;3458;53.678;14.080;2024-01-06T11:33:44;0.50;99.90
6841;DHT22;3458;53.678;14.080;2024-01-06T11:36:14;0.60;99.90
6841;DHT22;3458;53.678;14.080;2024-01-06T11:38:40;0.60;99.90
6841;DHT22;3458;53.678;14.080;2024-01-06T11:41:13;0.70;99.90
6841;DHT22;3458;53.678;14.080;2024-01-06T11:43:54;0.70;99.90
6841;DHT22;3458;53.678;14.080;2024-01-06T11:46:20;0.80;99.90
6841;DHT22;3458;53.678;14.080;2024-01-06T11:48:45;0.70;99.90
6841;DHT22;3458;53.678;14.080;2024-01-06T11:51:16;0.80;99.90
6841;DHT22;3458;53.678;14.080;2024-01-06T11:53:42;0.90;99.90
6841;DHT22;3458;53.678;14.080;2024-01-06T11:56:09;0.90;99.90
6841;DHT22;3458;53.678;14.080;2024-01-06T11:58:34;0.90;99.90
6841;DHT22;3458;53.678;14.080;2024-01-06T12:01:00;1.00;99.90
6841;DHT22;3458;53.678;14.080;2024-01-06T12:03:25;1.00;99.90
6841;DHT22;3458;53.678;14.080;2024-01-06T12:06:01;1.00;99.90
6841;DHT22;3458;53.678;14.080;2024-01-06T12:08:27;0.90;99.90
6841;DHT22;3458;53.678;14.080;2024-01-06T12:11:02;0.90;99.90
6841;DHT22;3458;53.678;14.080;2024-01-06T12:13:28;0.90;99.90
6841;DHT22;3458;53.678;14.080;2024-01-06T12:15:55;0.90;99.90
6841;DHT22;3458;53.678;14.080;2024-01-06T12:18:20;0.90;99.90
6841;DHT22;3458;53.678;14.080;2024-01-06T12:20:46;0.80;99.90
6841;DHT22;3458;53.678;14.080;2024-01-06T12:23:12;0.80;99.90
6841;DHT22;3458;53.678;14.080;2024-01-06T12:25:37;0.90;99.90
6841;DHT22;3458;53.678;14.080;2024-01-06T12:28:05;0.80;99.90
6841;DHT22;3458;53.678;14.080;2024-01-06T12:30:31;0.80;99.90
6841;DHT22;3458;53.678;14.080;2024-01-06T12:32:59;0.70;99.90
6841;DHT22;3458;53.678;14.080;2024-01-06T12:35:26;0.70;99.90
6841;DHT22;3458;53.678;14.080;2024-01-06T12:37:52;0.60;99.90
6841;DHT22;3458;53.678;14.080;2024-01-06T12:40:17;0.60;99.90
6841;DHT22;3458;53.678;14.080;2024-01-06T12:42:45;0.60;99.90
6841;DHT22;3458;53.678;14.080;2024-01-06T12:45:11;0.60;99.90
6841;DHT22;3458;53.678;14.080;2024-01-06T12:47:38;0.60;99.90
6841;DHT22;3458;53.678;14.080;2024-01-06T12:50:04;0.50;99.90
6841;DHT22;3458;53.678;14.080;2024-01-06T12:52:30;0.50;99.90
6841;DHT22;3458;53.678;14.080;2024-01-06T12:54:55;0.50;99.90
6841;DHT22;3458;53.678;14.080;2024-01-06T12:57:21;0.50;99.90
6841;DHT22;3458;53.678;14.080;2024-01-06T12:59:46;0.50;99.90
6841;DHT22;3458;53.678;14.080;2024-01-06T13:02:12;0.60;99.90
6841;DHT22;3458;53.678;14.080;2024-01-06T13:04:37;0.50;99.90
6841;DHT22;3458;53.678;14.080;2024-01-06T13:07:03;0.50;99.90
6841;DHT22;3458;53.678;14.080;2024-01-06T13:09:28;0.40;99.90
6841;DHT22;3458;53.678;14.080;2024-01-06T13:11:54;0.30;99.90
6841;DHT22;3458;53.678;14.080;2024-01-06T13:14:21;0.20;99.90
6841;DHT22;3458;53.678;14.080;2024-01-06T13:16:46;0.20;99.90
6841;DHT22;3458;53.678;14.080;2024-01-06T13:19:12;0.20;99.90
6841;DHT22;3458;53.678;14.080;2024-01-06T13:21:38;0.20;99.90
6841;DHT22;3458;53.678;14.080;2024-01-06T13:24:06;0.20;99.90
6841;DHT22;3458;53.678;14.080;2024-01-06T13:26:31;0.20;99.90
6841;DHT22;3458;53.678;14.080;2024-01-06T13:28:57;0.30;99.90
6841;DHT22;3458;53.678;14.080;2024-01-06T13:31:23;0.30;99.90
6841;DHT22;3458;53.678;14.080;2024-01-06T13:33:49;0.30;99.90
6841;DHT22;3458;53.678;14.080;2024-01-06T13:36:17;0.20;99.90
6841;DHT22;3458;53.678;14.080;2024-01-06T13:38:43;0.20;99.90
6841;DHT22;3458;53.678;14.080;2024-01-06T13:41:09;0.20;99.90
6841;DHT22;3458;53.678;14.080;2024-01-06T13:43:34;0.10;99.90
6841;DHT22;3458;53.678;14.080;2024-01-06T13:46:00;0.20;99.90
6841;DHT22;3458;53.678;14.080;2024-01-06T13:48:25;0.30;99.90
6841;DHT22;3458;53.678;14.080;2024-01-06T13:50:51;0.30;99.90
6841;DHT22;3458;53.678;14.080;2024-01-06T13:53:16;0.30;99.90
6841;DHT22;3458;53.678;14.080;2024-01-06T13:55:43;0.30;99.90
6841;DHT22;3458;53.678;14.080;2024-01-06T13:58:09;0.30;99.90
6841;DHT22;3458;53.678;14.080;2024-01-06T14:00:35;0.40;99.90
6841;DHT22;3458;53.678;14.080;2024-01-06T14:03:01;0.30;99.90
6841;DHT22;3458;53.678;14.080;2024-01-06T14:05:27;0.20;99.90
6841;DHT22;3458;53.678;14.080;2024-01-06T14:07:53;0.20;99.90
6841;DHT22;3458;53.678;14.080;2024-01-06T14:10:19;0.20;99.90
6841;DHT22;3458;53.678;14.080;2024-01-06T14:12:44;0.20;99.90
6841;DHT22;3458;53.678;14.080;2024-01-06T14:15:10;0.20;99.90
6841;DHT22;3458;53.678;14.080;2024-01-06T14:17:35;0.20;99.90
6841;DHT22;3458;53.678;14.080;2024-01-06T14:20:01;0.20;99.90
6841;DHT22;3458;53.678;14.080;2024-01-06T14:22:27;0.20;99.90
6841;DHT22;3458;53.678;14.080;2024-01-06T14:24:53;0.30;99.90
6841;DHT22;3458;53.678;14.080;2024-01-06T14:27:18;0.30;99.90
6841;DHT22;3458;53.678;14.080;2024-01-06T14:29:44;0.30;99.90
6841;DHT22;3458;53.678;14.080;2024-01-06T14:32:10;0.20;99.90
6841;DHT22;3458;53.678;14.080;2024-01-06T14:34:35;0.20;99.90
6841;DHT22;3458;53.678;14.080;2024-01-06T14:37:01;0.20;99.90
6841;DHT22;3458;53.678;14.080;2024-01-06T14:39:26;0.20;99.90
6841;DHT22;3458;53.678;14.080;2024-01-06T14:41:57;0.30;99.90
6841;DHT22;3458;53.678;14.080;2024-01-06T14:44:23;0.20;99.90
6841;DHT22;3458;53.678;14.080;2024-01-06T14:46:49;0.20;99.90
6841;DHT22;3458;53.678;14.080;2024-01-06T14:49:16;0.30;99.90
6841;DHT22;3458;53.678;14.080;2024-01-06T14:51:41;0.20;99.90
6841;DHT22;3458;53.678;14.080;2024-01-06T14:54:07;0.20;99.90
6841;DHT22;3458;53.678;14.080;2024-01-06T14:56:37;0.10;99.90
6841;DHT22;3458;53.678;14.080;2024-01-06T14:59:02;0.10;99.90
6841;DHT22;3458;53.678;14.080;2024-01-06T15:01:28;0.00;99.90
6841;DHT22;3458;53.678;14.080;2024-01-06T15:03:53;-0.10;99.90
6841;DHT22;3458;53.678;14.080;2024-01-06T15:06:18;0.00;99.90
6841;DHT22;3458;53.678;14.080;2024-01-06T15:08:44;0.00;99.90
6841;DHT22;3458;53.678;14.080;2024-01-06T15:11:09;0.00;99.90
6841;DHT22;3458;53.678;14.080;2024-01-06T15:13:35;-0.20;99.90
6841;DHT22;3458;53.678;14.080;2024-01-06T15:16:02;-0.10;99.90
6841;DHT22;3458;53.678;14.080;2024-01-06T15:18:27;-0.10;99.90
6841;DHT22;3458;53.678;14.080;2024-01-06T15:20:53;-0.20;99.90
6841;DHT22;3458;53.678;14.080;2024-01-06T15:23:18;-0.20;99.90
6841;DHT22;3458;53.678;14.080;2024-01-06T15:25:45;-0.20;99.90
6841;DHT22;3458;53.678;14.080;2024-01-06T15:28:10;-0.20;99.90
6841;DHT22;3458;53.678;14.080;2024-01-06T15:30:36;-0.20;99.90
6841;DHT22;3458;53.678;14.080;2024-01-06T15:33:01;-0.20;99.90
6841;DHT22;3458;53.678;14.080;2024-01-06T15:35:27;-0.20;99.90
6841;DHT22;3458;53.678;14.080;2024-01-06T15:37:52;-0.20;99.90
6841;DHT22;3458;53.678;14.080;2024-01-06T15:40:18;-0.20;99.90
6841;DHT22;3458;53.678;14.080;2024-01-06T15:42:43;-0.20;99.90
6841;DHT22;3458;53.678;14.080;2024-01-06T15:45:09;-0.20;99.90
6841;DHT22;3458;53.678;14.080;2024-01-06T15:47:43;-0.20;99.90
6841;DHT22;3458;53.678;14.080;2024-01-06T15:50:15;-0.20;99.90
6841;DHT22;3458;53.678;14.080;2024-01-06T15:52:40;-0.20;99.90